sensor_id;sensor_type;location;lat;lon;timestamp;pressure;altitude;pressure_sealevel;temperature;humidity
82927;BME280;72788;40.218;44.486;2024-03-22T00:00:22;88215.94;;;10.44;54.04
82927;BME280;72788;40.218;44.486;2024-03-22T00:02:47;88209.75;;;10.51;54.13
82927;BME280;72788;40.218;44.486;2024-03-22T00:05:13;88216.75;;;10.61;54.61
82927;BME280;72788;40.218;44.486;2024-03-22T00:07:39;88208.00;;;10.64;54.65
82927;BME280;72788;40.218;44.486;2024-03-22T00:10:06;88204.88;;;10.69;54.20
82927;BME280;72788;40.218;44.486;2024-03-22T00:12:32;88201.50;;;10.69;53.62
82927;BME280;72788;40.218;44.486;2024-03-22T00:14:57;88202.25;;;10.69;53.15
82927;BME280;72788;40.218;44.486;2024-03-22T00:17:23;88194.88;;;10.61;52.87
82927;BME280;72788;40.218;44.486;2024-03-22T00:19:49;88196.31;;;10.46;53.81
82927;BME280;72788;40.218;44.486;2024-03-22T00:22:14;88192.25;;;10.41;54.10
82927;BME280;72788;40.218;44.486;2024-03-22T00:24:41;88190.91;;;10.33;53.79
82927;BME280;72788;40.218;44.486;2024-03-22T00:27:07;88190.56;;;10.31;53.25
82927;BME280;72788;40.218;44.486;2024-03-22T00:29:33;88188.31;;;10.29;54.30
82927;BME280;72788;40.218;44.486;2024-03-22T00:31:58;88189.47;;;10.28;53.81
82927;BME280;72788;40.218;44.486;2024-03-22T00:34:25;88185.09;;;10.22;53.96
82927;BME280;72788;40.218;44.486;2024-03-22T00:36:51;88189.72;;;10.14;54.14
82927;BME280;72788;40.218;44.486;2024-03-22T00:39:16;88175.44;;;10.12;53.95
82927;BME280;72788;40.218;44.486;2024-03-22T00:41:42;88185.31;;;10.08;53.93
82927;BME280;72788;40.218;44.486;2024-03-22T00:44:08;88180.44;;;10.06;54.50
82927;BME280;72788;40.218;44.486;2024-03-22T00:46:34;88169.69;;;9.97;54.20
82927;BME280;72788;40.218;44.486;2024-03-22T00:49:01;88171.56;;;9.96;54.75
82927;BME280;72788;40.218;44.486;2024-03-22T00:51:26;88167.47;;;9.95;54.84
82927;BME280;72788;40.218;44.486;2024-03-22T00:53:52;88167.19;;;9.90;54.52
82927;BME280;72788;40.218;44.486;2024-03-22T00:56:18;88168.00;;;9.87;55.04
82927;BME280;72788;40.218;44.486;2024-03-22T00:58:44;88169.13;;;9.86;54.72
82927;BME280;72788;40.218;44.486;2024-03-22T01:01:10;88172.06;;;9.91;54.58
82927;BME280;72788;40.218;44.486;2024-03-22T01:03:35;88160.75;;;9.91;54.72
82927;BME280;72788;40.218;44.486;2024-03-22T01:06:01;88181.03;;;9.94;54.49
82927;BME280;72788;40.218;44.486;2024-03-22T01:08:27;88180.22;;;9.97;55.28
82927;BME280;72788;40.218;44.486;2024-03-22T01:10:53;88175.63;;;10.01;54.85
82927;BME280;72788;40.218;44.486;2024-03-22T01:13:19;88168.16;;;10.00;54.64
82927;BME280;72788;40.218;44.486;2024-03-22T01:15:45;88163.66;;;9.96;54.75
82927;BME280;72788;40.218;44.486;2024-03-22T01:18:12;88140.78;;;9.90;54.47
82927;BME280;72788;40.218;44.486;2024-03-22T01:20:38;88140.13;;;9.86;54.41
82927;BME280;72788;40.218;44.486;2024-03-22T01:23:03;88143.22;;;9.81;54.46
82927;BME280;72788;40.218;44.486;2024-03-22T01:25:30;88136.88;;;9.78;54.47
82927;BME280;72788;40.218;44.486;2024-03-22T01:27:56;88123.28;;;9.80;54.75
82927;BME280;72788;40.218;44.486;2024-03-22T01:30:22;88127.81;;;9.79;55.30
82927;BME280;72788;40.218;44.486;2024-03-22T01:32:48;88118.41;;;9.78;55.21
82927;BME280;72788;40.218;44.486;2024-03-22T01:35:13;88115.84;;;9.75;54.65
82927;BME280;72788;40.218;44.486;2024-03-22T01:37:39;88117.13;;;9.67;54.46
82927;BME280;72788;40.218;44.486;2024-03-22T01:40:05;88117.38;;;9.53;54.30
82927;BME280;72788;40.218;44.486;2024-03-22T01:42:31;88121.69;;;9.43;54.98
82927;BME280;72788;40.218;44.486;2024-03-22T01:44:57;88119.94;;;9.36;55.38
82927;BME280;72788;40.218;44.486;2024-03-22T01:47:23;88127.34;;;9.41;55.21
82927;BME280;72788;40.218;44.486;2024-03-22T01:49:51;88132.16;;;9.46;55.85
82927;BME280;72788;40.218;44.486;2024-03-22T01:52:17;88142.25;;;9.52;55.20
82927;BME280;72788;40.218;44.486;2024-03-22T01:54:43;88137.31;;;9.54;55.28
82927;BME280;72788;40.218;44.486;2024-03-22T01:57:09;88139.56;;;9.55;54.90
82927;BME280;72788;40.218;44.486;2024-03-22T01:59:35;88140.91;;;9.63;54.69
82927;BME280;72788;40.218;44.486;2024-03-22T02:02:01;88141.94;;;9.69;55.29
82927;BME280;72788;40.218;44.486;2024-03-22T02:04:28;88139.78;;;9.64;54.48
82927;BME280;72788;40.218;44.486;2024-03-22T02:06:53;88135.22;;;9.65;54.88
82927;BME280;72788;40.218;44.486;2024-03-22T02:09:19;88138.16;;;9.70;54.23
82927;BME280;72788;40.218;44.486;2024-03-22T02:11:46;88144.84;;;9.75;54.74
82927;BME280;72788;40.218;44.486;2024-03-22T02:14:12;88136.13;;;9.78;55.13
82927;BME280;72788;40.218;44.486;2024-03-22T02:16:42;88135.25;;;9.84;54.43
82927;BME280;72788;40.218;44.486;2024-03-22T02:19:08;88127.69;;;9.86;54.32
82927;BME280;72788;40.218;44.486;2024-03-22T02:21:34;88132.22;;;9.86;54.44
82927;BME280;72788;40.218;44.486;2024-03-22T02:24:00;88125.09;;;9.83;54.60
82927;BME280;72788;40.218;44.486;2024-03-22T02:26:29;88119.97;;;9.76;54.85
82927;BME280;72788;40.218;44.486;2024-03-22T02:28:54;88118.13;;;9.73;55.23
82927;BME280;72788;40.218;44.486;2024-03-22T02:31:20;88119.28;;;9.72;54.37
82927;BME280;72788;40.218;44.486;2024-03-22T02:33:46;88124.22;;;9.70;54.98
82927;BME280;72788;40.218;44.486;2024-03-22T02:36:11;88124.97;;;9.70;54.39
82927;BME280;72788;40.218;44.486;2024-03-22T02:38:37;88120.38;;;9.74;55.03
82927;BME280;72788;40.218;44.486;2024-03-22T02:41:03;88116.09;;;9.80;54.54
82927;BME280;72788;40.218;44.486;2024-03-22T02:43:29;88110.50;;;9.78;53.74
82927;BME280;72788;40.218;44.486;2024-03-22T02:45:54;88126.47;;;9.71;54.87
82927;BME280;72788;40.218;44.486;2024-03-22T02:48:20;88127.94;;;9.72;54.47
82927;BME280;72788;40.218;44.486;2024-03-22T02:50:46;88131.19;;;9.80;54.36
82927;BME280;72788;40.218;44.486;2024-03-22T02:53:11;88117.19;;;9.83;54.71
82927;BME280;72788;40.218;44.486;2024-03-22T02:55:38;88115.97;;;9.68;54.03
82927;BME280;72788;40.218;44.486;2024-03-22T02:58:05;88124.41;;;9.59;54.84
82927;BME280;72788;40.218;44.486;2024-03-22T03:00:31;88128.13;;;9.62;55.06
82927;BME280;72788;40.218;44.486;2024-03-22T03:02:57;88129.50;;;9.70;54.56
82927;BME280;72788;40.218;44.486;2024-03-22T03:05:26;88131.72;;;9.71;54.54
82927;BME280;72788;40.218;44.486;2024-03-22T03:07:51;88131.53;;;9.82;54.30
82927;BME280;72788;40.218;44.486;2024-03-22T03:10:17;88125.56;;;9.78;54.71
82927;BME280;72788;40.218;44.486;2024-03-22T03:12:43;88134.38;;;9.71;54.30
82927;BME280;72788;40.218;44.486;2024-03-22T03:15:08;88131.06;;;9.67;54.04
82927;BME280;72788;40.218;44.486;2024-03-22T03:17:34;88143.72;;;9.76;53.59
82927;BME280;72788;40.218;44.486;2024-03-22T03:20:00;88132.59;;;9.84;54.47
82927;BME280;72788;40.218;44.486;2024-03-22T03:22:26;88125.78;;;9.87;53.93
82927;BME280;72788;40.218;44.486;2024-03-22T03:24:51;88138.09;;;9.93;54.58
82927;BME280;72788;40.218;44.486;2024-03-22T03:27:17;88138.22;;;10.06;53.56
82927;BME280;72788;40.218;44.486;2024-03-22T03:29:43;88133.19;;;10.15;53.98
82927;BME280;72788;40.218;44.486;2024-03-22T03:32:08;88136.81;;;10.21;54.02
82927;BME280;72788;40.218;44.486;2024-03-22T03:34:34;88141.13;;;10.31;54.12
82927;BME280;72788;40.218;44.486;2024-03-22T03:37:00;88132.66;;;10.40;54.35
82927;BME280;72788;40.218;44.486;2024-03-22T03:39:27;88127.47;;;10.36;53.15
82927;BME280;72788;40.218;44.486;2024-03-22T03:41:54;88126.94;;;10.25;53.93
82927;BME280;72788;40.218;44.486;2024-03-22T03:44:20;88120.25;;;10.21;53.94
82927;BME280;72788;40.218;44.486;2024-03-22T03:46:46;88127.41;;;10.20;53.42
82927;BME280;72788;40.218;44.486;2024-03-22T03:49:12;88116.09;;;10.20;54.43
82927;BME280;72788;40.218;44.486;2024-03-22T03:51:37;88114.72;;;10.15;53.91
82927;BME280;72788;40.218;44.486;2024-03-22T03:54:03;88112.78;;;10.16;53.68
82927;BME280;72788;40.218;44.486;2024-03-22T03:56:29;88109.69;;;10.21;53.39
82927;BME280;72788;40.218;44.486;2024-03-22T03:58:55;88104.75;;;10.23;53.53
82927;BME280;72788;40.218;44.486;2024-03-22T04:01:21;88106.97;;;10.24;52.97
82927;BME280;72788;40.218;44.486;2024-03-22T04:03:48;88103.09;;;10.29;53.74
82927;BME280;72788;40.218;44.486;2024-03-22T04:06:14;88092.16;;;10.30;53.50
82927;BME280;72788;40.218;44.486;2024-03-22T04:08:40;88092.63;;;10.25;53.83
82927;BME280;72788;40.218;44.486;2024-03-22T04:11:06;88097.44;;;10.30;53.58
82927;BME280;72788;40.218;44.486;2024-03-22T04:13:31;88086.63;;;10.41;54.04
82927;BME280;72788;40.218;44.486;2024-03-22T04:15:59;88087.97;;;10.49;53.73
82927;BME280;72788;40.218;44.486;2024-03-22T04:18:25;88087.72;;;10.43;53.23
82927;BME280;72788;40.218;44.486;2024-03-22T04:20:54;88085.50;;;10.42;53.45
82927;BME280;72788;40.218;44.486;2024-03-22T04:23:21;88082.34;;;10.47;53.33
82927;BME280;72788;40.218;44.486;2024-03-22T04:26:00;88084.31;;;10.43;53.13
82927;BME280;72788;40.218;44.486;2024-03-22T04:28:26;88086.38;;;10.35;53.24
82927;BME280;72788;40.218;44.486;2024-03-22T04:31:00;88084.00;;;10.41;53.28
82927;BME280;72788;40.218;44.486;2024-03-22T04:33:27;88087.31;;;10.45;53.93
82927;BME280;72788;40.218;44.486;2024-03-22T04:35:54;88090.63;;;10.49;54.00
82927;BME280;72788;40.218;44.486;2024-03-22T04:38:20;88092.69;;;10.58;53.01
82927;BME280;72788;40.218;44.486;2024-03-22T04:40:46;88091.19;;;10.57;52.29
82927;BME280;72788;40.218;44.486;2024-03-22T04:43:11;88104.31;;;10.60;53.29
82927;BME280;72788;40.218;44.486;2024-03-22T04:45:37;88099.97;;;10.70;53.65
82927;BME280;72788;40.218;44.486;2024-03-22T04:48:04;88092.94;;;10.79;53.11
82927;BME280;72788;40.218;44.486;2024-03-22T04:50:30;88104.09;;;10.87;53.34
82927;BME280;72788;40.218;44.486;2024-03-22T04:52:56;88103.63;;;10.92;53.02
82927;BME280;72788;40.218;44.486;2024-03-22T04:55:22;88112.53;;;10.98;52.71
82927;BME280;72788;40.218;44.486;2024-03-22T04:57:48;88109.47;;;11.00;52.54
82927;BME280;72788;40.218;44.486;2024-03-22T05:00:15;88108.91;;;10.92;51.89
82927;BME280;72788;40.218;44.486;2024-03-22T05:02:40;88107.84;;;10.89;51.99
82927;BME280;72788;40.218;44.486;2024-03-22T05:05:06;88107.66;;;10.97;52.53
82927;BME280;72788;40.218;44.486;2024-03-22T05:07:35;88110.06;;;11.07;52.32
82927;BME280;72788;40.218;44.486;2024-03-22T05:10:02;88118.56;;;11.15;52.62
82927;BME280;72788;40.218;44.486;2024-03-22T05:12:28;88114.84;;;11.28;52.78
82927;BME280;72788;40.218;44.486;2024-03-22T05:14:55;88126.66;;;11.40;51.87
82927;BME280;72788;40.218;44.486;2024-03-22T05:17:21;88127.53;;;11.50;52.02
82927;BME280;72788;40.218;44.486;2024-03-22T05:19:49;88131.19;;;11.56;52.02
82927;BME280;72788;40.218;44.486;2024-03-22T05:22:15;88131.00;;;11.63;51.78
82927;BME280;72788;40.218;44.486;2024-03-22T05:24:41;88122.00;;;11.60;51.86
82927;BME280;72788;40.218;44.486;2024-03-22T05:27:07;88136.47;;;11.72;51.01
82927;BME280;72788;40.218;44.486;2024-03-22T05:29:33;88140.19;;;11.74;51.15
82927;BME280;72788;40.218;44.486;2024-03-22T05:31:58;88147.19;;;11.81;51.52
82927;BME280;72788;40.218;44.486;2024-03-22T05:34:25;88145.94;;;11.85;51.69
82927;BME280;72788;40.218;44.486;2024-03-22T05:36:51;88144.34;;;11.88;50.62
82927;BME280;72788;40.218;44.486;2024-03-22T05:39:17;88143.34;;;11.98;50.98
82927;BME280;72788;40.218;44.486;2024-03-22T05:41:42;88151.50;;;12.04;50.46
82927;BME280;72788;40.218;44.486;2024-03-22T05:44:11;88155.25;;;12.06;50.77
82927;BME280;72788;40.218;44.486;2024-03-22T05:46:37;88153.88;;;12.14;50.42
82927;BME280;72788;40.218;44.486;2024-03-22T05:49:02;88145.84;;;12.18;50.95
82927;BME280;72788;40.218;44.486;2024-03-22T05:51:28;88140.34;;;12.25;51.00
82927;BME280;72788;40.218;44.486;2024-03-22T05:53:56;88144.81;;;12.28;50.11
82927;BME280;72788;40.218;44.486;2024-03-22T05:56:22;88138.75;;;12.27;50.23
82927;BME280;72788;40.218;44.486;2024-03-22T05:58:48;88138.56;;;12.22;50.61
82927;BME280;72788;40.218;44.486;2024-03-22T06:01:14;88141.63;;;12.20;51.05
82927;BME280;72788;40.218;44.486;2024-03-22T06:03:39;88126.56;;;12.17;50.99
82927;BME280;72788;40.218;44.486;2024-03-22T06:06:05;88147.56;;;12.24;51.00
82927;BME280;72788;40.218;44.486;2024-03-22T06:08:31;88147.91;;;12.26;50.87
82927;BME280;72788;40.218;44.486;2024-03-22T06:11:00;88155.09;;;12.26;50.97
82927;BME280;72788;40.218;44.486;2024-03-22T06:13:26;88152.31;;;12.17;50.55
82927;BME280;72788;40.218;44.486;2024-03-22T06:15:52;88152.72;;;12.15;51.35
82927;BME280;72788;40.218;44.486;2024-03-22T06:18:18;88150.06;;;12.15;51.22
82927;BME280;72788;40.218;44.486;2024-03-22T06:20:43;88156.72;;;12.07;51.02
82927;BME280;72788;40.218;44.486;2024-03-22T06:23:09;88149.31;;;11.86;51.17
82927;BME280;72788;40.218;44.486;2024-03-22T06:25:35;88150.16;;;11.83;51.71
82927;BME280;72788;40.218;44.486;2024-03-22T06:28:02;88155.59;;;11.92;51.80
82927;BME280;72788;40.218;44.486;2024-03-22T06:30:27;88150.94;;;11.96;51.17
82927;BME280;72788;40.218;44.486;2024-03-22T06:32:53;88141.00;;;12.00;51.60
82927;BME280;72788;40.218;44.486;2024-03-22T06:35:20;88149.59;;;12.04;51.97
82927;BME280;72788;40.218;44.486;2024-03-22T06:37:46;88147.59;;;12.08;51.27
82927;BME280;72788;40.218;44.486;2024-03-22T06:40:13;88136.91;;;12.12;51.86
82927;BME280;72788;40.218;44.486;2024-03-22T06:42:39;88132.63;;;12.18;51.54
82927;BME280;72788;40.218;44.486;2024-03-22T06:45:05;88129.25;;;12.30;52.28
82927;BME280;72788;40.218;44.486;2024-03-22T06:47:33;88122.50;;;12.42;52.23
82927;BME280;72788;40.218;44.486;2024-03-22T06:49:59;88111.69;;;12.49;52.03
82927;BME280;72788;40.218;44.486;2024-03-22T06:52:25;88105.44;;;12.55;51.44
82927;BME280;72788;40.218;44.486;2024-03-22T06:54:51;88098.56;;;12.58;51.57
82927;BME280;72788;40.218;44.486;2024-03-22T06:57:17;88093.59;;;12.60;51.49
82927;BME280;72788;40.218;44.486;2024-03-22T06:59:43;88075.47;;;12.71;51.25
82927;BME280;72788;40.218;44.486;2024-03-22T07:02:08;88068.91;;;12.88;51.64
82927;BME280;72788;40.218;44.486;2024-03-22T07:04:35;88062.31;;;13.05;51.09
82927;BME280;72788;40.218;44.486;2024-03-22T07:07:01;88064.94;;;13.18;51.42
82927;BME280;72788;40.218;44.486;2024-03-22T07:09:26;88072.25;;;13.26;50.82
82927;BME280;72788;40.218;44.486;2024-03-22T07:11:55;88082.47;;;13.28;50.56
82927;BME280;72788;40.218;44.486;2024-03-22T07:14:20;88070.47;;;13.23;50.76
82927;BME280;72788;40.218;44.486;2024-03-22T07:16:49;88061.13;;;13.19;50.76
82927;BME280;72788;40.218;44.486;2024-03-22T07:19:15;88068.34;;;13.06;50.88
82927;BME280;72788;40.218;44.486;2024-03-22T07:21:40;88063.81;;;12.94;50.86
82927;BME280;72788;40.218;44.486;2024-03-22T07:24:06;88058.81;;;12.83;51.05
82927;BME280;72788;40.218;44.486;2024-03-22T07:26:32;88040.72;;;12.69;51.30
82927;BME280;72788;40.218;44.486;2024-03-22T07:28:57;88033.50;;;12.57;51.21
82927;BME280;72788;40.218;44.486;2024-03-22T07:31:23;88034.66;;;12.43;51.24
82927;BME280;72788;40.218;44.486;2024-03-22T07:33:49;88026.38;;;12.28;50.76
82927;BME280;72788;40.218;44.486;2024-03-22T07:36:15;88011.22;;;12.16;51.41
82927;BME280;72788;40.218;44.486;2024-03-22T07:38:42;88006.28;;;12.18;50.92
82927;BME280;72788;40.218;44.486;2024-03-22T07:41:08;88000.22;;;12.18;50.65
82927;BME280;72788;40.218;44.486;2024-03-22T07:43:33;87991.53;;;12.17;50.55
82927;BME280;72788;40.218;44.486;2024-03-22T07:45:59;87994.50;;;12.19;50.76
82927;BME280;72788;40.218;44.486;2024-03-22T07:48:25;87987.94;;;12.24;51.03
82927;BME280;72788;40.218;44.486;2024-03-22T07:51:00;87990.69;;;12.33;49.90
82927;BME280;72788;40.218;44.486;2024-03-22T07:53:27;87987.53;;;12.38;50.32
82927;BME280;72788;40.218;44.486;2024-03-22T07:55:52;87985.28;;;12.49;50.32
82927;BME280;72788;40.218;44.486;2024-03-22T07:58:19;87978.81;;;12.63;50.75
82927;BME280;72788;40.218;44.486;2024-03-22T08:00:45;87969.44;;;12.84;50.57
82927;BME280;72788;40.218;44.486;2024-03-22T08:03:15;87971.75;;;12.94;49.85
82927;BME280;72788;40.218;44.486;2024-03-22T08:05:44;87964.22;;;13.05;50.16
82927;BME280;72788;40.218;44.486;2024-03-22T08:08:09;87953.16;;;13.19;50.13
82927;BME280;72788;40.218;44.486;2024-03-22T08:10:35;87966.38;;;13.32;49.74
82927;BME280;72788;40.218;44.486;2024-03-22T08:13:01;87957.13;;;13.37;49.62
82927;BME280;72788;40.218;44.486;2024-03-22T08:15:27;87944.50;;;13.41;49.46
82927;BME280;72788;40.218;44.486;2024-03-22T08:17:53;87949.53;;;13.48;49.12
82927;BME280;72788;40.218;44.486;2024-03-22T08:20:18;87932.94;;;13.56;48.94
82927;BME280;72788;40.218;44.486;2024-03-22T08:22:44;87933.25;;;13.58;48.80
82927;BME280;72788;40.218;44.486;2024-03-22T08:25:10;87933.53;;;13.60;49.10
82927;BME280;72788;40.218;44.486;2024-03-22T08:27:36;87926.03;;;13.59;48.22
82927;BME280;72788;40.218;44.486;2024-03-22T08:30:01;87925.09;;;13.53;47.84
82927;BME280;72788;40.218;44.486;2024-03-22T08:32:29;87920.09;;;13.55;48.75
82927;BME280;72788;40.218;44.486;2024-03-22T08:34:57;87918.81;;;13.59;48.52
82927;BME280;72788;40.218;44.486;2024-03-22T08:37:23;87911.38;;;13.76;48.92
82927;BME280;72788;40.218;44.486;2024-03-22T08:39:49;87907.50;;;13.99;47.94
82927;BME280;72788;40.218;44.486;2024-03-22T08:42:14;87898.31;;;14.21;47.77
82927;BME280;72788;40.218;44.486;2024-03-22T08:44:40;87894.50;;;14.32;47.11
82927;BME280;72788;40.218;44.486;2024-03-22T08:47:06;87896.72;;;14.33;47.14
82927;BME280;72788;40.218;44.486;2024-03-22T08:49:32;87889.66;;;14.39;47.18
82927;BME280;72788;40.218;44.486;2024-03-22T08:51:57;87886.53;;;14.32;46.65
82927;BME280;72788;40.218;44.486;2024-03-22T08:54:23;87894.78;;;14.25;46.56
82927;BME280;72788;40.218;44.486;2024-03-22T08:56:49;87882.97;;;14.26;46.82
82927;BME280;72788;40.218;44.486;2024-03-22T08:59:15;87886.06;;;14.24;46.85
82927;BME280;72788;40.218;44.486;2024-03-22T09:01:40;87870.03;;;13.97;45.46
82927;BME280;72788;40.218;44.486;2024-03-22T09:04:06;87870.75;;;13.97;46.70
82927;BME280;72788;40.218;44.486;2024-03-22T09:06:32;87866.13;;;13.80;46.52
82927;BME280;72788;40.218;44.486;2024-03-22T09:08:57;87870.50;;;13.73;46.62
82927;BME280;72788;40.218;44.486;2024-03-22T09:11:24;87857.69;;;13.72;47.60
82927;BME280;72788;40.218;44.486;2024-03-22T09:13:53;87846.28;;;13.62;46.94
82927;BME280;72788;40.218;44.486;2024-03-22T09:16:20;87842.81;;;13.44;47.67
82927;BME280;72788;40.218;44.486;2024-03-22T09:18:46;87841.75;;;13.41;47.85
82927;BME280;72788;40.218;44.486;2024-03-22T09:21:12;87846.63;;;13.43;48.28
82927;BME280;72788;40.218;44.486;2024-03-22T09:23:37;87845.28;;;13.38;47.34
82927;BME280;72788;40.218;44.486;2024-03-22T09:26:03;87832.41;;;13.27;48.14
82927;BME280;72788;40.218;44.486;2024-03-22T09:28:29;87838.00;;;13.30;47.67
82927;BME280;72788;40.218;44.486;2024-03-22T09:30:55;87834.38;;;13.36;48.06
82927;BME280;72788;40.218;44.486;2024-03-22T09:33:21;87838.78;;;13.39;47.77
82927;BME280;72788;40.218;44.486;2024-03-22T09:35:47;87841.81;;;13.50;47.86
82927;BME280;72788;40.218;44.486;2024-03-22T09:38:13;87835.31;;;13.51;47.54
82927;BME280;72788;40.218;44.486;2024-03-22T09:40:41;87841.84;;;13.59;48.24
82927;BME280;72788;40.218;44.486;2024-03-22T09:43:07;87844.66;;;13.65;46.92
82927;BME280;72788;40.218;44.486;2024-03-22T09:45:33;87834.19;;;13.61;47.82
82927;BME280;72788;40.218;44.486;2024-03-22T09:47:59;87842.00;;;13.65;47.78
82927;BME280;72788;40.218;44.486;2024-03-22T09:50:26;87834.50;;;13.63;47.33
82927;BME280;72788;40.218;44.486;2024-03-22T09:52:52;87838.50;;;13.68;47.59
82927;BME280;72788;40.218;44.486;2024-03-22T09:55:23;87833.53;;;13.79;47.65
82927;BME280;72788;40.218;44.486;2024-03-22T09:57:49;87828.69;;;13.87;47.39
82927;BME280;72788;40.218;44.486;2024-03-22T10:00:20;87816.16;;;13.87;47.18
82927;BME280;72788;40.218;44.486;2024-03-22T10:02:49;87804.34;;;13.79;47.21
82927;BME280;72788;40.218;44.486;2024-03-22T10:05:15;87795.19;;;13.80;46.91
82927;BME280;72788;40.218;44.486;2024-03-22T10:07:43;87797.81;;;13.71;46.84
82927;BME280;72788;40.218;44.486;2024-03-22T10:10:09;87788.78;;;13.68;47.15
82927;BME280;72788;40.218;44.486;2024-03-22T10:12:35;87790.75;;;13.77;47.39
82927;BME280;72788;40.218;44.486;2024-03-22T10:15:02;87791.06;;;13.88;47.49
82927;BME280;72788;40.218;44.486;2024-03-22T10:17:28;87784.16;;;13.91;47.34
82927;BME280;72788;40.218;44.486;2024-03-22T10:19:54;87785.22;;;14.02;46.97
82927;BME280;72788;40.218;44.486;2024-03-22T10:22:20;87784.81;;;14.13;47.07
82927;BME280;72788;40.218;44.486;2024-03-22T10:24:49;87767.56;;;14.27;46.83
82927;BME280;72788;40.218;44.486;2024-03-22T10:27:15;87767.13;;;14.28;46.71
82927;BME280;72788;40.218;44.486;2024-03-22T10:29:41;87773.91;;;14.20;46.22
82927;BME280;72788;40.218;44.486;2024-03-22T10:32:08;87779.34;;;14.16;46.59
82927;BME280;72788;40.218;44.486;2024-03-22T10:34:34;87765.19;;;14.19;46.44
82927;BME280;72788;40.218;44.486;2024-03-22T10:37:00;87763.13;;;14.23;46.62
82927;BME280;72788;40.218;44.486;2024-03-22T10:39:27;87768.47;;;14.33;46.41
82927;BME280;72788;40.218;44.486;2024-03-22T10:41:54;87766.13;;;14.35;45.89
82927;BME280;72788;40.218;44.486;2024-03-22T10:44:20;87756.50;;;14.28;46.34
82927;BME280;72788;40.218;44.486;2024-03-22T10:46:48;87753.53;;;14.17;46.19
82927;BME280;72788;40.218;44.486;2024-03-22T10:49:20;87753.50;;;14.08;45.77
82927;BME280;72788;40.218;44.486;2024-03-22T10:51:50;87747.47;;;13.98;46.00
82927;BME280;72788;40.218;44.486;2024-03-22T10:54:20;87735.78;;;13.96;46.28
82927;BME280;72788;40.218;44.486;2024-03-22T10:56:47;87734.75;;;13.93;46.77
82927;BME280;72788;40.218;44.486;2024-03-22T10:59:18;87728.09;;;13.89;46.59
82927;BME280;72788;40.218;44.486;2024-03-22T11:01:49;87730.75;;;13.89;46.70
82927;BME280;72788;40.218;44.486;2024-03-22T11:04:17;87731.34;;;13.84;47.10
82927;BME280;72788;40.218;44.486;2024-03-22T11:06:47;87721.00;;;13.77;46.80
82927;BME280;72788;40.218;44.486;2024-03-22T11:09:20;87722.91;;;13.76;46.05
82927;BME280;72788;40.218;44.486;2024-03-22T11:11:47;87724.38;;;13.68;47.16
82927;BME280;72788;40.218;44.486;2024-03-22T11:14:12;87729.69;;;13.68;47.11
82927;BME280;72788;40.218;44.486;2024-03-22T11:16:38;87731.75;;;13.64;47.89
82927;BME280;72788;40.218;44.486;2024-03-22T11:19:07;87727.63;;;13.63;46.57
82927;BME280;72788;40.218;44.486;2024-03-22T11:21:33;87731.28;;;13.65;47.29
82927;BME280;72788;40.218;44.486;2024-03-22T11:24:02;87734.88;;;13.71;46.99
82927;BME280;72788;40.218;44.486;2024-03-22T11:26:28;87737.66;;;13.77;47.17
82927;BME280;72788;40.218;44.486;2024-03-22T11:28:54;87728.66;;;13.74;47.07
82927;BME280;72788;40.218;44.486;2024-03-22T11:31:19;87721.91;;;13.83;47.14
82927;BME280;72788;40.218;44.486;2024-03-22T11:33:51;87719.41;;;13.88;47.01
82927;BME280;72788;40.218;44.486;2024-03-22T11:36:17;87710.13;;;13.93;46.90
82927;BME280;72788;40.218;44.486;2024-03-22T11:38:43;87710.44;;;13.95;47.07
82927;BME280;72788;40.218;44.486;2024-03-22T11:41:09;87733.88;;;13.96;46.26
82927;BME280;72788;40.218;44.486;2024-03-22T11:43:35;87721.78;;;13.95;46.14
82927;BME280;72788;40.218;44.486;2024-03-22T11:46:00;87723.72;;;13.95;46.33
82927;BME280;72788;40.218;44.486;2024-03-22T11:48:27;87729.16;;;13.91;45.44
82927;BME280;72788;40.218;44.486;2024-03-22T11:50:53;87723.69;;;13.86;46.39
82927;BME280;72788;40.218;44.486;2024-03-22T11:53:21;87726.66;;;13.88;46.63
82927;BME280;72788;40.218;44.486;2024-03-22T11:55:49;87711.75;;;13.90;46.21
82927;BME280;72788;40.218;44.486;2024-03-22T11:58:15;87729.00;;;13.95;46.64
82927;BME280;72788;40.218;44.486;2024-03-22T12:00:43;87723.84;;;14.00;46.07
82927;BME280;72788;40.218;44.486;2024-03-22T12:03:09;87731.41;;;14.11;45.44
82927;BME280;72788;40.218;44.486;2024-03-22T12:05:35;87722.69;;;14.19;45.67
82927;BME280;72788;40.218;44.486;2024-03-22T12:08:01;87722.84;;;14.25;45.90
82927;BME280;72788;40.218;44.486;2024-03-22T12:10:27;87714.44;;;14.27;45.56
82927;BME280;72788;40.218;44.486;2024-03-22T12:12:53;87710.00;;;14.23;45.42
82927;BME280;72788;40.218;44.486;2024-03-22T12:15:19;87711.94;;;14.23;45.61
82927;BME280;72788;40.218;44.486;2024-03-22T12:17:45;87709.72;;;14.21;45.49
82927;BME280;72788;40.218;44.486;2024-03-22T12:20:11;87708.38;;;14.08;46.03
82927;BME280;72788;40.218;44.486;2024-03-22T12:22:37;87713.25;;;14.09;45.97
82927;BME280;72788;40.218;44.486;2024-03-22T12:25:02;87693.16;;;14.08;45.79
82927;BME280;72788;40.218;44.486;2024-03-22T12:27:29;87695.41;;;14.19;45.89
82927;BME280;72788;40.218;44.486;2024-03-22T12:29:55;87694.81;;;14.24;46.32
82927;BME280;72788;40.218;44.486;2024-03-22T12:32:21;87688.59;;;14.27;45.81
82927;BME280;72788;40.218;44.486;2024-03-22T12:34:47;87689.19;;;14.31;46.04
82927;BME280;72788;40.218;44.486;2024-03-22T12:37:13;87687.03;;;14.39;45.94
82927;BME280;72788;40.218;44.486;2024-03-22T12:39:39;87698.22;;;14.43;45.36
82927;BME280;72788;40.218;44.486;2024-03-22T12:42:05;87696.91;;;14.38;45.57
82927;BME280;72788;40.218;44.486;2024-03-22T12:44:31;87702.22;;;14.38;45.30
82927;BME280;72788;40.218;44.486;2024-03-22T12:46:57;87707.97;;;14.37;45.80